createdAt,value
2019-05-01T00:00:26.918Z,78.61
2019-05-01T00:01:26.840Z,78.71
2019-05-01T00:02:26.829Z,78.91
2019-05-01T00:03:26.831Z,78.71
2019-05-01T00:04:26.874Z,78.61
2019-05-01T00:05:26.799Z,78.61
2019-05-01T00:06:26.909Z,78.71
2019-05-01T00:07:27.069Z,79.12
2019-05-01T00:08:26.768Z,79.22
2019-05-01T00:09:26.768Z,79.22
2019-05-01T00:10:26.759Z,79.12
2019-05-01T00:11:26.738Z,78.81
2019-05-01T00:12:26.800Z,78.61
2019-05-01T00:13:26.729Z,78.71
2019-05-01T00:14:26.708Z,78.75
2019-05-01T00:15:26.717Z,79.16
2019-05-01T00:16:26.686Z,79.36
2019-05-01T00:17:27.866Z,79.16
2019-05-01T00:18:26.720Z,79.16
2019-05-01T00:19:26.937Z,79.16
2019-05-01T00:20:26.639Z,79.16
2019-05-01T00:21:26.636Z,79.66
2019-05-01T00:22:26.618Z,80.18
2019-05-01T00:23:26.609Z,80.28
2019-05-01T00:24:26.676Z,80.52
2019-05-01T00:25:26.589Z,80.79
2019-05-01T00:26:26.894Z,80.89
2019-05-01T00:27:26.569Z,80.69
2019-05-01T00:28:26.562Z,80.24
2019-05-01T00:29:26.550Z,80.04
2019-05-01T00:30:30.001Z,80.04
2019-05-01T00:31:26.518Z,80.07
2019-05-01T00:32:26.520Z,80.79
2019-05-01T00:33:26.787Z,81.44
2019-05-01T00:34:26.488Z,81.85
2019-05-01T00:35:26.484Z,82.15
2019-05-01T00:36:26.527Z,82.26
2019-05-01T00:37:26.466Z,82.36
2019-05-01T00:38:26.466Z,82.60
2019-05-01T00:39:26.436Z,83.01
2019-05-01T00:40:26.715Z,82.97
2019-05-01T00:41:26.426Z,82.67
2019-05-01T00:42:27.156Z,82.56
2019-05-01T00:43:26.412Z,82.56
2019-05-01T00:44:26.386Z,82.50
2019-05-01T00:45:26.376Z,82.70
2019-05-01T00:46:26.366Z,82.91
2019-05-01T00:47:26.674Z,83.22
2019-05-01T00:48:26.418Z,83.46
2019-05-01T00:49:26.335Z,83.66
2019-05-01T00:50:26.327Z,83.76
2019-05-01T00:51:26.313Z,84.42
2019-05-01T00:52:26.305Z,84.93
2019-05-01T00:53:26.300Z,85.03
2019-05-01T00:54:26.619Z,84.93
2019-05-01T00:55:26.266Z,85.03
2019-05-01T00:56:26.279Z,84.89
2019-05-01T00:57:26.254Z,84.58
2019-05-01T00:58:26.243Z,84.69
2019-05-01T00:59:26.225Z,84.83
2019-05-01T01:00:26.264Z,84.72
2019-05-01T01:01:26.205Z,84.63
2019-05-01T01:02:26.285Z,84.83
2019-05-01T01:03:26.255Z,85.03
2019-05-01T01:04:26.185Z,85.24
2019-05-01T01:05:26.165Z,85.48
2019-05-01T01:06:26.265Z,86.10
2019-05-01T01:07:26.437Z,86.16
2019-05-01T01:08:26.143Z,85.96
2019-05-01T01:09:26.131Z,85.44
2019-05-01T01:10:26.115Z,85.34
2019-05-01T01:11:26.104Z,85.03
2019-05-01T01:12:26.151Z,85.03
2019-05-01T01:13:26.085Z,85.03
2019-05-01T01:14:26.071Z,84.93
2019-05-01T01:15:26.062Z,85.24
2019-05-01T01:16:26.044Z,85.14
2019-05-01T01:17:26.040Z,85.14
2019-05-01T01:18:26.180Z,85.24
2019-05-01T01:19:26.295Z,85.34
2019-05-01T01:20:26.041Z,85.14
2019-05-01T01:21:26.297Z,85.24
2019-05-01T01:22:25.984Z,85.64
2019-05-01T01:23:25.981Z,85.55
2019-05-01T01:24:26.024Z,85.64
2019-05-01T01:25:25.960Z,85.55
2019-05-01T01:26:25.955Z,85.34
2019-05-01T01:27:25.932Z,85.64
2019-05-01T01:28:25.931Z,85.89
2019-05-01T01:29:25.912Z,86.10
2019-05-01T01:30:25.933Z,86.30
2019-05-01T01:31:25.890Z,86.55
2019-05-01T01:32:25.890Z,86.96
2019-05-01T01:33:25.941Z,87.16
2019-05-01T01:34:25.860Z,87.26
2019-05-01T01:35:25.852Z,87.37
2019-05-01T01:36:26.612Z,87.57
2019-05-01T01:37:26.112Z,87.47
2019-05-01T01:38:25.826Z,87.43
2019-05-01T01:39:25.809Z,87.02
2019-05-01T01:40:25.791Z,86.81
2019-05-01T01:41:25.782Z,86.81
2019-05-01T01:42:25.856Z,87.02
2019-05-01T01:43:25.769Z,87.02
2019-05-01T01:44:25.751Z,86.91
2019-05-01T01:45:25.748Z,86.71
2019-05-01T01:46:25.732Z,86.46
2019-05-01T01:47:25.731Z,85.85
2019-05-01T01:48:25.752Z,85.64
2019-05-01T01:49:25.981Z,85.75
2019-05-01T01:50:25.690Z,85.96
2019-05-01T01:51:25.690Z,85.44
2019-05-01T01:52:25.691Z,85.85
2019-05-01T01:53:25.662Z,85.85
2019-05-01T01:54:25.710Z,85.85
2019-05-01T01:55:25.920Z,86.16
2019-05-01T01:56:25.636Z,86.26
2019-05-01T01:57:25.617Z,86.05
2019-05-01T01:58:25.603Z,86.26
2019-05-01T01:59:25.601Z,86.30
2019-05-01T02:01:41.657Z,86.51
2019-05-01T02:02:41.329Z,86.46
2019-05-01T02:03:41.308Z,85.85
2019-05-01T02:04:41.294Z,86.20
2019-05-01T02:05:41.305Z,86.30
2019-05-01T02:06:41.266Z,86.40
2019-05-01T02:07:41.295Z,86.61
2019-05-01T02:08:41.266Z,87.02
2019-05-01T02:09:41.259Z,86.81
2019-05-01T02:10:43.006Z,86.91
2019-05-01T02:11:41.225Z,87.26
2019-05-01T02:12:41.205Z,87.57
2019-05-01T02:13:41.603Z,87.67
2019-05-01T02:14:41.185Z,87.57
2019-05-01T02:15:41.175Z,87.67
2019-05-01T02:16:41.195Z,87.88
2019-05-01T02:17:41.168Z,87.88
2019-05-01T02:18:41.167Z,87.67
2019-05-01T02:19:41.184Z,87.67
2019-05-01T02:20:41.130Z,87.77
2019-05-01T02:21:41.114Z,87.88
2019-05-01T02:22:41.097Z,87.98
2019-05-01T02:23:41.083Z,87.94
2019-05-01T02:24:41.086Z,87.57
2019-05-01T02:25:41.393Z,87.67
2019-05-01T02:26:41.065Z,87.67
2019-05-01T02:27:41.582Z,87.77
2019-05-01T02:28:41.033Z,88.08
2019-05-01T02:29:41.034Z,87.98
2019-05-01T02:30:41.023Z,87.73
2019-05-01T02:31:41.136Z,87.53
2019-05-01T02:32:41.004Z,87.18
2019-05-01T02:33:40.987Z,86.16
2019-05-01T02:34:40.974Z,85.96
2019-05-01T02:35:40.964Z,86.05
2019-05-01T02:36:40.956Z,86.16
2019-05-01T02:37:41.277Z,86.46
2019-05-01T02:38:40.933Z,85.91
2019-05-01T02:39:40.931Z,85.26
2019-05-01T02:40:40.910Z,84.65
2019-05-01T02:41:41.718Z,84.20
2019-05-01T02:42:40.901Z,83.59
2019-05-01T02:43:40.955Z,82.97
2019-05-01T02:44:40.872Z,83.48
2019-05-01T02:45:40.880Z,83.48
2019-05-01T02:46:40.843Z,83.28
2019-05-01T02:47:40.852Z,83.18
2019-05-01T02:48:40.831Z,83.32
2019-05-01T02:49:41.466Z,83.93
2019-05-01T02:50:40.801Z,84.79
2019-05-01T02:51:40.877Z,84.89
2019-05-01T02:52:40.917Z,85.50
2019-05-01T02:53:40.980Z,85.50
2019-05-01T02:54:40.934Z,85.50
2019-05-01T02:55:40.840Z,85.40
2019-05-01T02:56:41.082Z,85.44
2019-05-01T02:57:40.801Z,85.96
2019-05-01T02:58:40.940Z,86.71
2019-05-01T02:59:40.760Z,87.32
2019-05-01T03:00:40.825Z,87.22
2019-05-01T03:01:47.140Z,87.22
2019-05-01T03:02:41.715Z,87.67
2019-05-01T03:03:40.995Z,88.08
2019-05-01T03:04:40.707Z,88.39
2019-05-01T03:05:40.704Z,88.45
2019-05-01T03:06:40.676Z,88.45
2019-05-01T03:07:40.949Z,88.04
2019-05-01T03:08:40.659Z,87.94
2019-05-01T03:09:40.816Z,87.84
2019-05-01T03:10:41.942Z,87.84
2019-05-01T03:11:40.661Z,87.84
2019-05-01T03:12:40.648Z,88.04
2019-05-01T03:13:40.769Z,87.94
2019-05-01T03:14:40.581Z,88.24
2019-05-01T03:15:40.590Z,88.04
2019-05-01T03:16:40.548Z,88.04
2019-05-01T03:17:40.922Z,88.14
2019-05-01T03:18:40.643Z,88.45
2019-05-01T03:19:40.732Z,88.35
2019-05-01T03:20:40.517Z,88.35
2019-05-01T03:21:40.499Z,88.24
2019-05-01T03:22:40.458Z,88.45
2019-05-01T03:23:40.540Z,88.45
2019-05-01T03:24:40.738Z,88.35
2019-05-01T03:25:40.642Z,87.59
2019-05-01T03:26:40.461Z,87.38
2019-05-01T03:27:40.448Z,87.38
2019-05-01T03:28:40.438Z,87.29
2019-05-01T03:29:40.633Z,87.38
2019-05-01T03:30:40.514Z,87.32
2019-05-01T03:31:40.463Z,87.53
2019-05-01T03:32:40.460Z,87.94
2019-05-01T03:33:40.490Z,88.35
2019-05-01T03:34:40.445Z,87.94
2019-05-01T03:35:40.429Z,87.63
2019-05-01T03:36:40.371Z,87.79
2019-05-01T03:37:40.719Z,87.08
2019-05-01T03:38:40.355Z,87.38
2019-05-01T03:39:40.336Z,87.32
2019-05-01T03:40:40.338Z,87.59
2019-05-01T03:41:40.401Z,87.08
2019-05-01T03:42:40.370Z,86.98
2019-05-01T03:43:40.598Z,87.38
2019-05-01T03:44:40.410Z,87.18
2019-05-01T03:45:40.246Z,86.98
2019-05-01T03:46:40.284Z,86.88
2019-05-01T03:47:40.297Z,86.57
2019-05-01T03:48:40.384Z,86.61
2019-05-01T03:49:40.826Z,87.37
2019-05-01T03:50:40.206Z,87.88
2019-05-01T03:51:40.200Z,88.18
2019-05-01T03:52:40.337Z,88.59
2019-05-01T03:53:40.241Z,89.00
2019-05-01T03:54:40.156Z,88.59
2019-05-01T03:55:40.249Z,88.59
2019-05-01T03:56:40.154Z,88.08
2019-05-01T03:57:40.135Z,88.18
2019-05-01T03:58:40.166Z,88.24
2019-05-01T03:59:40.173Z,87.94
2019-05-01T04:00:40.115Z,87.73
2019-05-01T04:01:41.018Z,88.04
2019-05-01T04:02:40.119Z,87.84
2019-05-01T04:03:40.096Z,87.32
2019-05-01T04:04:40.024Z,87.63
2019-05-01T04:05:40.039Z,87.53
2019-05-01T04:06:40.070Z,87.32
2019-05-01T04:07:40.353Z,87.18
2019-05-01T04:08:40.072Z,86.57
2019-05-01T04:09:40.011Z,86.57
2019-05-01T04:10:39.982Z,86.05
2019-05-01T04:11:40.029Z,85.81
2019-05-01T04:12:39.964Z,85.30
2019-05-01T04:13:39.973Z,84.89
2019-05-01T04:14:40.576Z,84.28
2019-05-01T04:15:39.953Z,84.72
2019-05-01T04:16:39.932Z,85.44
2019-05-01T04:17:39.894Z,84.99
2019-05-01T04:18:39.983Z,83.87
2019-05-01T04:19:41.105Z,84.01
2019-05-01T04:20:40.504Z,84.31
2019-05-01T04:21:39.914Z,83.91
2019-05-01T04:22:39.886Z,84.15
2019-05-01T04:23:40.046Z,84.46
2019-05-01T04:24:39.831Z,84.77
2019-05-01T04:25:39.926Z,84.80
2019-05-01T04:26:40.214Z,85.01
2019-05-01T04:27:39.827Z,85.11
2019-05-01T04:28:39.872Z,85.77
2019-05-01T04:29:39.827Z,85.87
2019-05-01T04:30:39.766Z,86.22
2019-05-01T04:31:39.877Z,86.32
2019-05-01T04:32:52.172Z,86.32
2019-05-01T04:33:40.801Z,86.52
2019-05-01T04:34:39.727Z,86.83
2019-05-01T04:35:39.742Z,86.69
2019-05-01T04:36:39.704Z,86.07
2019-05-01T04:37:40.061Z,85.01
2019-05-01T04:38:39.750Z,84.60
2019-05-01T04:39:39.962Z,84.29
2019-05-01T04:40:39.851Z,84.12
2019-05-01T04:41:39.928Z,84.64
2019-05-01T04:42:39.717Z,85.05
2019-05-01T04:43:40.040Z,84.84
2019-05-01T04:44:39.840Z,84.95
2019-05-01T04:45:39.587Z,84.74
2019-05-01T04:46:39.599Z,84.33
2019-05-01T04:47:39.725Z,84.03
2019-05-01T04:48:39.703Z,84.23
2019-05-01T04:49:39.620Z,84.12
2019-05-01T04:50:39.539Z,84.33
2019-05-01T04:51:39.559Z,84.68
2019-05-01T04:52:39.853Z,84.58
2019-05-01T04:53:39.648Z,84.78
2019-05-01T04:54:39.654Z,84.53
2019-05-01T04:55:39.675Z,84.12
2019-05-01T04:56:39.502Z,84.23
2019-05-01T04:57:39.468Z,83.68
2019-05-01T04:58:39.493Z,82.86
2019-05-01T04:59:40.037Z,82.62
2019-05-01T05:00:39.479Z,82.35
2019-05-01T05:01:39.478Z,82.65
2019-05-01T05:02:39.500Z,82.31
2019-05-01T05:03:39.442Z,81.59
2019-05-01T05:04:39.509Z,81.15
2019-05-01T05:05:39.401Z,80.63
2019-05-01T05:06:39.748Z,80.22
2019-05-01T05:07:39.419Z,79.91
2019-05-01T05:08:39.434Z,80.12
2019-05-01T05:09:39.347Z,80.36
2019-05-01T05:10:39.316Z,80.57
2019-05-01T05:11:39.328Z,80.60
2019-05-01T05:12:39.356Z,81.67
2019-05-01T05:13:40.225Z,82.28
2019-05-01T05:14:39.329Z,82.83
2019-05-01T05:15:39.307Z,83.55
2019-05-01T05:16:39.266Z,83.20
2019-05-01T05:17:39.320Z,82.69
2019-05-01T05:18:39.266Z,82.69
2019-05-01T05:19:39.709Z,82.39
2019-05-01T05:20:39.575Z,82.83
2019-05-01T05:21:39.246Z,83.10
2019-05-01T05:22:39.296Z,83.00
2019-05-01T05:23:39.225Z,83.04
2019-05-01T05:24:39.275Z,83.25
2019-05-01T05:25:39.448Z,83.45
2019-05-01T05:26:39.291Z,82.59
2019-05-01T05:27:39.204Z,82.22
2019-05-01T05:28:39.245Z,82.73
2019-05-01T05:29:39.183Z,83.04
2019-05-01T05:30:39.155Z,82.83
2019-05-01T05:31:39.545Z,82.83
2019-05-01T05:32:39.161Z,83.04
2019-05-01T05:33:39.130Z,82.83
2019-05-01T05:34:39.156Z,82.77
2019-05-01T05:35:39.144Z,83.18
2019-05-01T05:36:39.127Z,83.69
2019-05-01T05:37:39.480Z,83.59
2019-05-01T05:38:39.217Z,83.49
2019-05-01T05:39:39.082Z,83.18
2019-05-01T05:40:39.179Z,83.39
2019-05-01T05:41:39.263Z,83.18
2019-05-01T05:42:39.041Z,82.46
2019-05-01T05:43:39.303Z,82.36
2019-05-01T05:44:39.230Z,82.56
2019-05-01T05:45:39.043Z,82.87
2019-05-01T05:46:38.986Z,82.77
2019-05-01T05:47:39.377Z,82.32
2019-05-01T05:48:39.068Z,81.81
2019-05-01T05:49:39.169Z,81.71
2019-05-01T05:50:39.159Z,81.91
2019-05-01T05:51:39.016Z,82.32
2019-05-01T05:52:39.402Z,81.91
2019-05-01T05:53:38.874Z,81.91
2019-05-01T05:54:38.862Z,81.50
2019-05-01T05:55:39.243Z,81.60
2019-05-01T05:56:39.261Z,82.05
2019-05-01T05:57:39.141Z,81.91
2019-05-01T05:58:39.174Z,81.40
2019-05-01T05:59:38.928Z,80.95
2019-05-01T06:00:39.010Z,80.33
2019-05-01T06:01:39.432Z,80.03
2019-05-01T06:02:39.032Z,80.17
2019-05-01T06:03:38.971Z,80.58
2019-05-01T06:04:38.841Z,80.37
2019-05-01T06:05:38.816Z,80.88
2019-05-01T06:06:38.978Z,81.20
2019-05-01T06:07:38.893Z,80.64
2019-05-01T06:08:39.490Z,79.89
2019-05-01T06:09:38.711Z,79.07
2019-05-01T06:10:38.746Z,78.35
2019-05-01T06:11:38.670Z,78.56
2019-05-01T06:12:41.626Z,78.59
2019-05-01T06:13:39.833Z,79.00
2019-05-01T06:14:39.042Z,79.41
2019-05-01T06:15:41.157Z,79.27
2019-05-01T06:16:40.335Z,78.05
2019-05-01T06:17:38.781Z,77.39
2019-05-01T06:18:39.339Z,76.54
2019-05-01T06:19:38.967Z,75.82
2019-05-01T06:20:39.215Z,75.07
2019-05-01T06:21:38.820Z,74.56
2019-05-01T06:22:40.812Z,74.76
2019-05-01T06:23:39.654Z,74.56
2019-05-01T06:24:40.691Z,74.15
2019-05-01T06:25:39.008Z,74.26
2019-05-01T06:26:39.469Z,74.05
2019-05-01T06:27:38.737Z,73.91
2019-05-01T06:28:38.573Z,73.61
2019-05-01T06:29:40.830Z,73.50
2019-05-01T06:30:41.930Z,73.20
2019-05-01T06:31:40.412Z,73.50
2019-05-01T06:32:40.068Z,73.50
2019-05-01T06:33:44.306Z,73.20
2019-05-01T06:34:39.491Z,73.71
2019-05-01T06:35:39.415Z,73.85
2019-05-01T06:36:38.876Z,74.56
2019-05-01T06:37:40.181Z,75.42
2019-05-01T06:38:38.606Z,76.06
2019-05-01T06:39:42.989Z,76.68
2019-05-01T06:40:39.582Z,76.30
2019-05-01T06:41:42.403Z,75.48
2019-05-01T06:42:38.524Z,74.39
2019-05-01T06:43:39.471Z,73.06
2019-05-01T06:44:43.753Z,73.23
2019-05-01T06:45:39.457Z,74.39
2019-05-01T06:46:38.594Z,74.80
2019-05-01T06:47:42.960Z,74.60
2019-05-01T06:48:39.424Z,74.35
2019-05-01T06:49:38.513Z,73.94
2019-05-01T06:50:41.599Z,73.64
2019-05-01T06:51:39.273Z,74.15
2019-05-01T06:52:38.915Z,74.05
2019-05-01T06:53:39.974Z,73.91
2019-05-01T06:54:38.320Z,73.30
2019-05-01T06:55:38.449Z,73.30
2019-05-01T06:56:39.274Z,73.20
2019-05-01T06:57:43.073Z,73.40
2019-05-01T06:58:39.177Z,73.81
2019-05-01T06:59:38.173Z,74.02
2019-05-01T07:00:39.149Z,74.46
2019-05-01T07:01:38.583Z,74.19
2019-05-01T07:02:38.234Z,75.14
2019-05-01T07:03:40.729Z,75.76
2019-05-01T07:04:39.684Z,76.06
2019-05-01T07:05:38.168Z,76.27
2019-05-01T07:06:38.533Z,76.17
2019-05-01T07:07:38.234Z,75.96
2019-05-01T07:08:39.706Z,75.93
2019-05-01T07:09:38.108Z,75.38
2019-05-01T07:10:44.070Z,74.46
2019-05-01T07:11:42.031Z,74.46
2019-05-01T07:12:38.031Z,74.66
2019-05-01T07:13:40.004Z,74.05
2019-05-01T07:14:38.004Z,74.32
2019-05-01T07:15:37.989Z,74.22
2019-05-01T07:16:39.278Z,74.22
2019-05-01T07:17:37.975Z,73.27
2019-05-01T07:18:37.954Z,73.27
2019-05-01T07:19:40.303Z,73.57
2019-05-01T07:20:37.935Z,72.75
2019-05-01T07:21:37.913Z,73.47
2019-05-01T07:22:42.139Z,72.96
2019-05-01T07:23:37.904Z,73.20
2019-05-01T07:24:37.886Z,73.81
2019-05-01T07:25:39.417Z,73.91
2019-05-01T07:26:37.874Z,73.06
2019-05-01T07:27:37.851Z,71.05
2019-05-01T07:28:37.856Z,70.88
2019-05-01T07:29:39.774Z,70.31
2019-05-01T07:30:41.488Z,69.35
2019-05-01T07:31:37.824Z,68.71
2019-05-01T07:32:41.062Z,68.40
2019-05-01T07:33:37.801Z,67.38
2019-05-01T07:34:37.795Z,67.59
2019-05-01T07:35:37.986Z,67.82
2019-05-01T07:36:37.817Z,68.88
2019-05-01T07:37:38.031Z,68.51
2019-05-01T07:38:38.816Z,67.46
2019-05-01T07:39:37.743Z,66.88
2019-05-01T07:40:37.714Z,65.39
2019-05-01T07:41:38.914Z,63.16
2019-05-01T07:42:37.765Z,63.80
2019-05-01T07:43:37.682Z,64.51
2019-05-01T07:44:37.972Z,63.67
2019-05-01T07:45:38.871Z,63.23
2019-05-01T07:46:38.641Z,62.05
2019-05-01T07:47:37.642Z,61.55
2019-05-01T07:48:41.530Z,62.32
2019-05-01T07:49:38.623Z,62.82
2019-05-01T07:50:37.615Z,64.44
2019-05-01T07:51:42.266Z,66.44
2019-05-01T07:52:38.591Z,68.74
2019-05-01T07:53:37.571Z,69.90
2019-05-01T07:54:37.943Z,70.10
2019-05-01T07:55:37.562Z,70.51
2019-05-01T07:56:37.540Z,69.69
2019-05-01T07:57:39.496Z,69.90
2019-05-01T07:58:38.010Z,69.82
2019-05-01T07:59:37.510Z,70.44
2019-05-01T08:00:41.575Z,69.38
2019-05-01T08:01:37.496Z,68.07
2019-05-01T08:02:37.483Z,65.77
2019-05-01T08:03:38.079Z,64.72
2019-05-01T08:04:37.460Z,63.94
2019-05-01T08:05:40.871Z,63.94
2019-05-01T08:06:38.574Z,64.25
2019-05-01T08:07:37.513Z,64.38
2019-05-01T08:08:39.646Z,64.48
2019-05-01T08:09:37.429Z,64.07
2019-05-01T08:10:37.401Z,65.33
2019-05-01T08:11:39.061Z,67.12
2019-05-01T08:12:38.912Z,67.99
2019-05-01T08:13:37.359Z,68.95
2019-05-01T08:14:37.359Z,67.12
2019-05-01T08:15:37.347Z,64.92
2019-05-01T08:16:37.892Z,63.13
2019-05-01T08:17:37.343Z,61.65
2019-05-01T08:18:37.341Z,61.24
2019-05-01T08:19:39.382Z,61.68
2019-05-01T08:20:37.289Z,62.52
2019-05-01T08:21:37.290Z,63.97
2019-05-01T08:22:38.911Z,65.02
2019-05-01T08:23:37.259Z,65.16
2019-05-01T08:24:37.325Z,65.86
2019-05-01T08:25:37.240Z,65.12
2019-05-01T08:26:39.783Z,62.90
2019-05-01T08:27:38.218Z,61.32
2019-05-01T08:28:37.211Z,61.21
2019-05-01T08:29:41.870Z,61.04
2019-05-01T08:30:38.220Z,61.98
2019-05-01T08:31:37.170Z,61.44
2019-05-01T08:32:39.120Z,61.78
2019-05-01T08:33:37.178Z,61.60
2019-05-01T08:34:48.419Z,61.68
2019-05-01T08:35:38.146Z,60.74
2019-05-01T08:36:37.169Z,62.01
2019-05-01T08:37:37.462Z,63.70
2019-05-01T08:38:37.108Z,64.20
2019-05-01T08:39:39.800Z,65.05
2019-05-01T08:40:38.123Z,65.16
2019-05-01T08:41:37.730Z,63.71
2019-05-01T08:42:37.761Z,61.52
2019-05-01T08:43:38.066Z,60.11
2019-05-01T08:44:37.092Z,58.97
2019-05-01T08:45:40.916Z,59.86
2019-05-01T08:46:38.020Z,60.27
2019-05-01T08:47:37.008Z,58.76
2019-05-01T08:48:37.817Z,57.02
2019-05-01T08:49:37.282Z,57.35
2019-05-01T08:50:36.978Z,58.59
2019-05-01T08:51:36.974Z,57.83
2019-05-01T08:52:36.946Z,56.38
2019-05-01T08:53:36.988Z,55.95
2019-05-01T08:54:37.007Z,56.48
2019-05-01T08:55:39.809Z,57.42
2019-05-01T08:56:37.909Z,57.20
2019-05-01T08:57:39.228Z,56.69
2019-05-01T08:58:36.887Z,56.99
2019-05-01T08:59:37.157Z,57.53
2019-05-01T09:00:41.047Z,58.39
2019-05-01T09:01:36.949Z,58.34
2019-05-01T09:02:41.778Z,56.15
2019-05-01T09:03:37.842Z,55.29
2019-05-01T09:04:36.852Z,53.63
2019-05-01T09:05:36.853Z,55.75
2019-05-01T09:06:39.275Z,58.36
2019-05-01T09:07:37.843Z,56.69
2019-05-01T09:08:36.792Z,55.69
2019-05-01T09:09:39.701Z,52.97
2019-05-01T09:10:37.767Z,53.22
2019-05-01T09:11:37.408Z,54.25
2019-05-01T09:12:36.786Z,54.76
2019-05-01T09:13:36.976Z,53.40
2019-05-01T09:14:36.876Z,52.56
2019-05-01T09:15:36.782Z,51.61
2019-05-01T09:16:36.722Z,51.71
2019-05-01T09:17:36.684Z,50.76
2019-05-01T09:18:36.768Z,51.40
2019-05-01T09:19:37.096Z,52.41
2019-05-01T09:20:36.675Z,55.09
2019-05-01T09:21:37.746Z,53.83
2019-05-01T09:22:36.640Z,52.56
2019-05-01T09:23:36.654Z,51.00
2019-05-01T09:24:36.795Z,50.78
2019-05-01T09:25:36.893Z,52.36
2019-05-01T09:26:36.887Z,52.44
2019-05-01T09:27:36.590Z,51.61
2019-05-01T09:28:39.800Z,50.56
2019-05-01T09:29:36.554Z,52.14
2019-05-01T09:30:36.657Z,52.34
2019-05-01T09:31:36.548Z,52.89
2019-05-01T09:32:36.586Z,52.34
2019-05-01T09:33:39.057Z,51.71
2019-05-01T09:34:36.619Z,52.54
2019-05-01T09:35:40.169Z,52.84
2019-05-01T09:36:37.526Z,52.11
2019-05-01T09:37:36.491Z,52.36
2019-05-01T09:38:36.526Z,53.83
2019-05-01T09:39:36.450Z,53.85
2019-05-01T09:40:36.914Z,55.19
2019-05-01T09:41:38.474Z,54.41
2019-05-01T09:42:36.525Z,52.31
2019-05-01T09:43:37.037Z,50.73
2019-05-01T09:44:36.387Z,50.43
2019-05-01T09:45:36.396Z,49.90
2019-05-01T09:46:36.377Z,49.18
2019-05-01T09:47:39.539Z,48.55
2019-05-01T09:48:37.794Z,48.95
2019-05-01T09:49:39.467Z,48.35
2019-05-01T09:50:37.501Z,51.26
2019-05-01T09:51:37.913Z,49.88
2019-05-01T09:52:36.990Z,49.18
2019-05-01T09:53:36.322Z,49.80
2019-05-01T09:54:37.867Z,50.31
2019-05-01T09:55:37.359Z,50.76
2019-05-01T09:56:38.439Z,52.09
2019-05-01T09:57:40.756Z,51.73
2019-05-01T09:58:37.247Z,50.28
2019-05-01T09:59:36.253Z,50.38
2019-05-01T10:00:36.365Z,51.66
2019-05-01T10:01:36.547Z,53.27
2019-05-01T10:02:37.551Z,55.54
2019-05-01T10:03:37.197Z,51.97
2019-05-01T10:04:36.198Z,50.08
2019-05-01T10:05:37.963Z,48.30
2019-05-01T10:06:39.674Z,47.80
2019-05-01T10:07:36.158Z,48.65
2019-05-01T10:08:40.142Z,48.43
2019-05-01T10:09:37.143Z,48.40
2019-05-01T10:10:37.066Z,48.10
2019-05-01T10:11:40.642Z,49.35
2019-05-01T10:12:37.398Z,49.77
2019-05-01T10:13:37.536Z,49.07
2019-05-01T10:14:37.481Z,49.68
2019-05-01T10:15:36.617Z,49.60
2019-05-01T10:16:37.194Z,50.63
2019-05-01T10:17:37.939Z,48.83
2019-05-01T10:18:37.857Z,48.30
2019-05-01T10:19:37.738Z,47.00
2019-05-01T10:20:36.030Z,45.46
2019-05-01T10:21:36.098Z,44.84
2019-05-01T10:22:37.534Z,45.40
2019-05-01T10:23:36.118Z,48.65
2019-05-01T10:24:37.664Z,49.45
2019-05-01T10:25:36.458Z,49.73
2019-05-01T10:26:36.258Z,48.40
2019-05-01T10:27:37.404Z,47.85
2019-05-01T10:28:35.926Z,47.70
2019-05-01T10:29:36.746Z,49.13
2019-05-01T10:30:37.628Z,48.38
2019-05-01T10:31:36.596Z,48.18
2019-05-01T10:32:36.420Z,47.77
2019-05-01T10:33:37.269Z,47.55
2019-05-01T10:34:38.784Z,47.45
2019-05-01T10:35:43.045Z,48.20
2019-05-01T10:36:37.846Z,49.95
2019-05-01T10:37:36.318Z,48.72
2019-05-01T10:38:39.976Z,48.93
2019-05-01T10:39:37.190Z,48.48
2019-05-01T10:40:35.846Z,47.77
2019-05-01T10:41:35.981Z,47.35
2019-05-01T10:42:35.791Z,47.43
2019-05-01T10:43:35.906Z,46.95
2019-05-01T10:44:38.157Z,47.38
2019-05-01T10:45:40.608Z,47.67
2019-05-01T10:46:38.880Z,47.13
2019-05-01T10:47:36.610Z,45.96
2019-05-01T10:48:39.917Z,44.32
2019-05-01T10:49:42.426Z,44.82
2019-05-01T10:50:36.726Z,44.12
2019-05-01T10:51:41.126Z,44.49
2019-05-01T10:52:38.561Z,44.29
2019-05-01T10:53:37.020Z,45.76
2019-05-01T10:54:36.820Z,45.26
2019-05-01T10:55:38.130Z,45.46
2019-05-01T10:56:36.270Z,44.84
2019-05-01T10:57:40.602Z,44.93
2019-05-01T10:58:37.531Z,44.51
2019-05-01T10:59:37.121Z,44.32
2019-05-01T11:00:36.560Z,45.58
2019-05-01T11:01:35.884Z,46.11
2019-05-01T11:02:38.561Z,46.73
2019-05-01T11:03:37.001Z,46.83
2019-05-01T11:04:35.941Z,46.61
2019-05-01T11:05:36.361Z,46.61
2019-05-01T11:06:37.872Z,45.66
2019-05-01T11:07:38.701Z,46.20
2019-05-01T11:08:37.452Z,46.41
2019-05-01T11:09:38.783Z,45.43
2019-05-01T11:10:38.873Z,44.62
2019-05-01T11:11:35.793Z,45.98
2019-05-01T11:12:36.798Z,47.45
2019-05-01T11:13:36.792Z,48.28
2019-05-01T11:14:36.364Z,48.90
2019-05-01T11:15:36.540Z,49.73
2019-05-01T11:16:40.462Z,48.16
2019-05-01T11:17:36.609Z,47.23
2019-05-01T11:18:35.960Z,46.58
2019-05-01T11:19:36.494Z,45.94
2019-05-01T11:20:36.473Z,44.59
2019-05-01T11:21:36.563Z,44.29
2019-05-01T11:22:38.455Z,44.82
2019-05-01T11:23:37.093Z,45.66
2019-05-01T11:24:36.612Z,46.28
2019-05-01T11:25:48.059Z,45.76
2019-05-01T11:26:38.025Z,45.24
2019-05-01T11:27:36.469Z,45.04
2019-05-01T11:28:40.164Z,44.59
2019-05-01T11:30:11.863Z,44.71
2019-05-01T11:30:36.675Z,44.12
2019-05-01T11:34:34.326Z,42.83
2019-05-01T11:35:36.844Z,43.65
2019-05-01T11:36:38.918Z,43.13
2019-05-01T11:37:35.478Z,43.11
2019-05-01T11:38:34.058Z,42.18
2019-05-01T11:39:35.978Z,42.85
2019-05-01T11:40:35.591Z,44.32
2019-05-01T11:41:32.697Z,47.45
2019-05-01T11:42:33.521Z,48.16
2019-05-01T11:43:36.561Z,45.76
2019-05-01T11:45:05.533Z,45.76
2019-05-01T11:45:33.973Z,44.92
2019-05-01T11:46:33.959Z,44.70
2019-05-01T11:47:35.122Z,44.17
2019-05-01T11:48:34.302Z,43.67
2019-05-01T11:49:32.890Z,43.03
2019-05-01T11:50:35.912Z,42.93
2019-05-01T11:51:36.504Z,42.81
2019-05-01T11:52:34.458Z,43.18
2019-05-01T11:53:34.324Z,44.71
2019-05-01T11:54:33.161Z,45.39
2019-05-01T11:55:34.095Z,43.85
2019-05-01T11:56:35.043Z,43.01
2019-05-01T11:57:35.948Z,43.23
2019-05-01T11:58:34.887Z,43.67
2019-05-01T11:59:35.402Z,44.21
2019-05-01T12:00:32.748Z,44.62
2019-05-01T12:01:38.429Z,43.48
2019-05-01T12:02:39.558Z,43.75
2019-05-01T12:07:03.766Z,42.83
2019-05-01T12:08:01.438Z,43.98
2019-05-01T12:09:02.383Z,44.07
2019-05-01T12:10:05.257Z,44.29
2019-05-01T12:11:09.314Z,44.59
2019-05-01T12:18:31.876Z,42.54
2019-05-01T12:19:31.366Z,43.35
2019-05-01T12:20:38.839Z,42.83
2019-05-01T12:21:33.810Z,42.93
2019-05-01T12:22:34.905Z,42.81
2019-05-01T12:23:32.809Z,42.59
2019-05-01T12:24:38.906Z,41.75
2019-05-01T12:25:44.416Z,40.62
2019-05-01T12:26:45.779Z,39.47
2019-05-01T12:27:33.744Z,39.17
2019-05-01T12:28:32.498Z,40.20
2019-05-01T12:29:31.445Z,40.66
2019-05-01T12:30:31.590Z,42.02
2019-05-01T12:36:36.456Z,41.99
2019-05-01T12:37:30.446Z,43.79
2019-05-01T12:38:28.670Z,44.70
2019-05-01T12:39:29.587Z,43.65
2019-05-01T12:40:27.001Z,44.17
2019-05-01T12:41:28.605Z,43.43
2019-05-01T12:42:34.010Z,43.33
2019-05-01T12:43:27.971Z,42.49
2019-05-01T12:44:27.060Z,41.97
2019-05-01T12:45:28.590Z,41.67
2019-05-01T12:46:53.475Z,41.28
2019-05-01T12:47:27.838Z,41.39
2019-05-01T12:48:30.006Z,42.11
2019-05-01T12:49:29.993Z,42.51
2019-05-01T12:50:37.137Z,42.29
2019-05-01T12:51:33.616Z,42.63
2019-05-01T12:53:05.117Z,43.87
2019-05-01T12:54:03.198Z,44.37
2019-05-01T12:54:30.321Z,43.25
2019-05-01T12:55:32.409Z,43.25
2019-05-01T12:56:28.471Z,42.93
2019-05-01T12:57:27.122Z,42.41
2019-05-01T12:58:26.617Z,41.58
2019-05-01T13:00:19.213Z,42.73
2019-05-01T13:00:44.924Z,42.81
2019-05-01T13:01:37.815Z,41.99
2019-05-01T13:02:27.731Z,42.54
2019-05-01T13:03:28.509Z,42.71
2019-05-01T13:04:27.379Z,42.49
2019-05-01T13:05:27.192Z,41.58
2019-05-01T13:06:29.076Z,41.80
2019-05-01T13:07:27.399Z,41.88
2019-05-01T13:08:37.744Z,42.49
2019-05-01T13:09:28.196Z,44.51
2019-05-01T13:10:26.361Z,45.14
2019-05-01T13:11:29.841Z,45.96